createdAt,value
2023-03-01T00:01:43.020Z,98423.72
2023-03-01T00:04:11.108Z,98436.78
2023-03-01T00:06:40.662Z,98388.94
2023-03-01T00:09:08.785Z,98441.97
2023-03-01T00:11:37.003Z,98417.69
2023-03-01T00:14:07.709Z,98442.81
2023-03-01T00:16:39.731Z,98423.72
2023-03-01T00:19:09.049Z,98431.72
2023-03-01T00:21:37.383Z,98429.31
2023-03-01T00:24:07.550Z,98407.53
2023-03-01T00:26:35.643Z,98431.00
2023-03-01T00:29:03.703Z,98432.69
2023-03-01T00:31:34.082Z,98433.41
2023-03-01T00:34:04.086Z,98440.16
2023-03-01T00:36:34.321Z,98442.63
2023-03-01T00:39:04.144Z,98433.13
2023-03-01T00:41:35.719Z,98425.34
2023-03-01T00:44:04.330Z,98239.13
2023-03-01T00:46:32.891Z,98420.16
2023-03-01T00:49:03.115Z,98421.88
2023-03-01T00:51:31.727Z,98408.78
2023-03-01T00:54:01.601Z,98396.69
2023-03-01T00:56:29.957Z,98423.72
2023-03-01T00:58:59.777Z,98415.97
2023-03-01T01:01:31.708Z,98409.09
2023-03-01T01:04:01.677Z,98266.31
2023-03-01T01:06:31.785Z,98409.00
2023-03-01T01:09:00.559Z,98417.63
2023-03-01T01:11:31.443Z,98414.13
2023-03-01T01:14:01.440Z,98415.88
2023-03-01T01:16:30.851Z,98382.16
2023-03-01T01:18:59.634Z,98400.44
2023-03-01T01:21:28.471Z,98389.22
2023-03-01T01:23:56.671Z,98379.56
2023-03-01T01:26:26.854Z,98395.25
2023-03-01T01:28:55.554Z,98404.78
2023-03-01T01:31:25.943Z,98389.25
2023-03-01T01:33:55.092Z,98392.75
2023-03-01T01:36:23.434Z,98397.09
2023-03-01T01:38:51.640Z,98385.72
2023-03-01T01:41:20.797Z,98380.59
2023-03-01T01:43:50.705Z,98377.13
2023-03-01T01:46:28.181Z,98368.44
2023-03-01T01:49:00.977Z,98364.97
2023-03-01T01:51:39.581Z,98331.94
2023-03-01T01:54:12.641Z,98361.44
2023-03-01T01:56:44.507Z,98365.75
2023-03-01T01:59:13.942Z,98370.94
2023-03-01T02:01:43.794Z,98353.41
2023-03-01T02:04:12.149Z,98367.59
2023-03-01T02:06:46.926Z,98255.25
2023-03-01T02:09:17.977Z,98361.63
2023-03-01T02:11:46.711Z,98334.69
2023-03-01T02:14:14.979Z,98361.63
2023-03-01T02:16:45.252Z,98279.00
2023-03-01T02:19:27.563Z,98357.25
2023-03-01T02:22:04.722Z,98353.84
2023-03-01T02:24:42.631Z,98356.38
2023-03-01T02:27:13.217Z,98321.59
2023-03-01T02:29:47.460Z,98121.28
2023-03-01T02:32:17.410Z,98345.75
2023-03-01T02:34:45.755Z,98294.31
2023-03-01T02:37:21.595Z,98350.81
2023-03-01T02:39:52.875Z,98343.84
2023-03-01T02:42:27.295Z,98341.22
2023-03-01T02:44:57.142Z,98347.38
2023-03-01T02:47:25.349Z,98345.75
2023-03-01T02:49:53.444Z,98277.13
2023-03-01T02:52:33.736Z,98323.97
2023-03-01T02:55:05.343Z,98334.44
2023-03-01T02:57:35.876Z,98336.16
2023-03-01T03:00:09.151Z,98341.41
2023-03-01T03:02:38.345Z,98341.34
2023-03-01T03:05:09.421Z,98338.75
2023-03-01T03:07:40.165Z,98334.44
2023-03-01T03:10:12.339Z,98281.22
2023-03-01T03:12:40.856Z,98327.53
2023-03-01T03:15:13.884Z,98330.97
2023-03-01T03:17:46.235Z,98332.72
2023-03-01T03:20:20.218Z,98313.63
2023-03-01T03:22:49.013Z,98340.81
2023-03-01T03:25:17.932Z,98320.78
2023-03-01T03:27:47.650Z,98332.88
2023-03-01T03:30:20.178Z,98208.44
2023-03-01T03:32:53.452Z,98334.69
2023-03-01T03:35:23.494Z,98319.88
2023-03-01T03:38:07.511Z,98291.31
2023-03-01T03:40:37.526Z,98339.03
2023-03-01T03:43:07.817Z,98301.78
2023-03-01T03:45:37.779Z,98331.28
2023-03-01T03:48:08.941Z,98148.28
2023-03-01T03:50:37.524Z,98344.94
2023-03-01T03:53:07.119Z,98318.91
2023-03-01T03:55:35.992Z,98343.25
2023-03-01T03:58:08.087Z,98340.56
2023-03-01T04:00:39.638Z,98343.81
2023-03-01T04:03:08.164Z,98309.91
2023-03-01T04:05:36.601Z,98307.28
2023-03-01T04:08:08.372Z,98341.34
2023-03-01T04:10:38.589Z,98338.75
2023-03-01T04:13:06.900Z,98337.88
2023-03-01T04:15:35.926Z,98336.13
2023-03-01T04:18:06.263Z,98236.94
2023-03-01T04:20:37.313Z,98331.00
2023-03-01T04:23:14.398Z,98333.63
2023-03-01T04:25:44.357Z,98317.94
2023-03-01T04:28:12.720Z,98348.34
2023-03-01T04:30:42.484Z,98346.63
2023-03-01T04:33:12.957Z,98317.25
2023-03-01T04:35:41.704Z,98339.00
2023-03-01T04:38:10.121Z,98341.59
2023-03-01T04:40:38.371Z,98352.72
2023-03-01T04:43:06.976Z,98293.63
2023-03-01T04:45:36.749Z,98321.41
2023-03-01T04:48:05.367Z,98345.75
2023-03-01T04:50:35.262Z,98302.34
2023-03-01T04:53:03.583Z,98338.06
2023-03-01T04:55:32.620Z,98333.84
2023-03-01T04:58:01.089Z,98266.69
2023-03-01T05:00:29.256Z,98291.13
2023-03-01T05:02:59.100Z,98328.56
2023-03-01T05:05:29.318Z,98328.50
2023-03-01T05:08:00.935Z,98312.00
2023-03-01T05:10:31.468Z,98327.63
2023-03-01T05:13:00.144Z,98330.22
2023-03-01T05:15:29.665Z,98329.38
2023-03-01T05:18:00.400Z,98179.78
2023-03-01T05:20:29.611Z,98319.94
2023-03-01T05:23:00.792Z,98323.41
2023-03-01T05:25:34.207Z,98300.72
2023-03-01T05:28:05.446Z,98269.47
2023-03-01T05:30:35.153Z,98326.84
2023-03-01T05:33:03.622Z,98334.69
2023-03-01T05:35:33.820Z,98270.25
2023-03-01T05:38:03.478Z,98336.63
2023-03-01T05:40:31.766Z,98312.34
2023-03-01T05:42:59.931Z,98339.19
2023-03-01T05:45:29.489Z,98348.66
2023-03-01T05:47:57.662Z,98316.25
2023-03-01T05:50:28.158Z,98326.56
2023-03-01T05:53:00.735Z,98335.28
2023-03-01T05:55:32.104Z,98219.91
2023-03-01T05:58:01.666Z,98284.63
2023-03-01T06:00:30.869Z,98349.00
2023-03-01T06:03:00.127Z,98325.53
2023-03-01T06:05:29.550Z,98244.56
2023-03-01T06:08:00.743Z,98323.19
2023-03-01T06:10:30.842Z,98348.50
2023-03-01T06:13:00.313Z,98351.97
2023-03-01T06:15:29.066Z,98352.78
2023-03-01T06:18:00.135Z,98324.91
2023-03-01T06:20:32.758Z,98356.16
2023-03-01T06:23:01.250Z,98357.91
2023-03-01T06:25:30.847Z,98327.59
2023-03-01T06:27:59.081Z,98354.63
2023-03-01T06:30:28.661Z,98355.59
2023-03-01T06:33:02.457Z,98358.25
2023-03-01T06:35:31.741Z,98360.00
2023-03-01T06:38:01.025Z,98350.22
2023-03-01T06:40:32.224Z,98317.84
2023-03-01T06:43:00.749Z,98369.38
2023-03-01T06:45:29.145Z,98378.19
2023-03-01T06:48:05.105Z,98337.97
2023-03-01T06:50:33.895Z,98331.13
2023-03-01T06:53:02.262Z,98355.50
2023-03-01T06:55:32.403Z,98384.16
2023-03-01T06:58:01.853Z,98238.09
2023-03-01T07:00:31.011Z,98381.81
2023-03-01T07:03:03.060Z,98379.25
2023-03-01T07:05:31.910Z,98304.22
2023-03-01T07:08:00.174Z,98379.13
2023-03-01T07:10:28.439Z,98325.13
2023-03-01T07:13:01.490Z,98358.25
2023-03-01T07:15:30.199Z,98371.19
2023-03-01T07:17:59.014Z,98391.16
2023-03-01T07:20:27.332Z,98390.38
2023-03-01T07:22:57.566Z,98395.63
2023-03-01T07:25:25.856Z,98391.34
2023-03-01T07:27:54.786Z,98405.16
2023-03-01T07:30:27.097Z,98329.41
2023-03-01T07:32:55.919Z,98382.44
2023-03-01T07:35:24.565Z,98408.59
2023-03-01T07:37:52.813Z,98419.00
2023-03-01T07:40:21.531Z,98402.53
2023-03-01T07:42:49.845Z,98399.06
2023-03-01T07:45:18.210Z,98395.75
2023-03-01T07:47:47.865Z,98399.25
2023-03-01T07:50:16.619Z,98399.19
2023-03-01T07:52:47.201Z,98394.75
2023-03-01T07:55:15.730Z,98412.75
2023-03-01T07:57:46.438Z,98414.34
2023-03-01T08:00:15.655Z,98389.03
2023-03-01T08:02:43.879Z,98371.78
2023-03-01T08:05:13.741Z,98408.38
2023-03-01T08:07:42.128Z,98405.03
2023-03-01T08:10:11.955Z,98402.38
2023-03-01T08:12:40.236Z,98405.22
2023-03-01T08:15:09.796Z,98412.91
2023-03-01T08:17:38.078Z,98403.31
2023-03-01T08:20:08.257Z,98358.47
2023-03-01T08:22:37.905Z,98412.69
2023-03-01T08:25:06.859Z,98404.19
2023-03-01T08:27:35.108Z,98413.88
2023-03-01T08:30:03.355Z,98393.84
2023-03-01T08:32:31.645Z,98387.75
2023-03-01T08:34:59.842Z,98377.44
2023-03-01T08:37:28.892Z,98402.81
2023-03-01T08:39:58.652Z,98400.28
2023-03-01T08:42:26.890Z,98402.03
2023-03-01T08:44:55.185Z,98275.81
2023-03-01T08:47:23.393Z,98391.56
2023-03-01T08:49:52.796Z,98381.38
2023-03-01T08:52:21.610Z,98382.41
2023-03-01T08:54:50.284Z,98340.72
2023-03-01T08:57:20.210Z,98385.00
2023-03-01T08:59:48.425Z,98378.94
2023-03-01T09:02:18.596Z,98376.38
2023-03-01T09:04:47.068Z,98372.69
2023-03-01T09:07:15.286Z,98377.06
2023-03-01T09:09:43.595Z,98351.88
2023-03-01T09:12:12.308Z,98344.19
2023-03-01T09:14:42.371Z,98366.84
2023-03-01T09:17:10.779Z,98357.38
2023-03-01T09:19:39.178Z,98346.22
2023-03-01T09:22:07.384Z,98314.19
2023-03-01T09:24:35.661Z,98338.44
2023-03-01T09:27:04.059Z,98323.69
2023-03-01T09:29:32.250Z,98332.31
2023-03-01T09:32:01.942Z,98231.59
2023-03-01T09:34:30.228Z,98309.09
2023-03-01T09:37:01.119Z,98324.81
2023-03-01T09:39:29.304Z,98323.09
2023-03-01T09:42:03.384Z,98302.28
2023-03-01T09:44:37.965Z,98323.09
2023-03-01T09:47:11.337Z,98318.06
2023-03-01T09:49:49.722Z,98303.28
2023-03-01T09:52:27.769Z,98294.66
2023-03-01T09:55:00.368Z,98310.44
2023-03-01T09:57:35.303Z,98315.66
2023-03-01T10:00:39.437Z,98321.75
2023-03-01T10:03:18.882Z,98308.84
2023-03-01T10:05:57.316Z,98307.06
2023-03-01T10:08:37.005Z,98285.34
2023-03-01T10:11:07.835Z,98306.09
2023-03-01T10:13:53.906Z,98285.31
2023-03-01T10:16:28.486Z,98279.34
2023-03-01T10:19:02.671Z,98303.66
2023-03-01T10:21:32.883Z,98232.19
2023-03-01T10:24:12.832Z,98288.09
2023-03-01T10:26:52.557Z,98305.47
2023-03-01T10:29:26.458Z,98312.50
2023-03-01T10:31:56.345Z,98315.97
2023-03-01T10:34:31.461Z,98326.25
2023-03-01T10:37:10.815Z,98335.75
2023-03-01T10:39:39.211Z,98307.13
2023-03-01T10:42:21.705Z,98351.38
2023-03-01T10:44:51.311Z,98353.06
2023-03-01T10:47:22.799Z,98357.38
2023-03-01T10:50:00.265Z,98359.97
2023-03-01T10:52:34.549Z,98364.28
2023-03-01T10:55:07.204Z,98343.44
2023-03-01T10:57:42.800Z,98357.28
2023-03-01T11:00:24.664Z,98346.84
2023-03-01T11:03:04.906Z,98353.53
2023-03-01T11:05:35.557Z,98271.13
2023-03-01T11:08:05.461Z,98305.94
2023-03-01T11:10:36.880Z,98330.47
2023-03-01T11:13:10.193Z,98323.59
2023-03-01T11:15:38.606Z,98328.88
2023-03-01T11:18:14.006Z,98322.84
2023-03-01T11:20:44.429Z,98294.16
2023-03-01T11:23:14.816Z,98319.47
2023-03-01T11:25:45.923Z,98326.44
2023-03-01T11:28:18.759Z,98319.47
2023-03-01T11:31:06.834Z,98302.25
2023-03-01T11:33:42.234Z,98296.22
2023-03-01T11:36:19.548Z,98293.59
2023-03-01T11:38:49.627Z,98277.06
2023-03-01T11:41:20.662Z,98287.59
2023-03-01T11:43:55.099Z,98284.19
2023-03-01T11:46:54.025Z,98279.88
2023-03-01T11:49:47.172Z,98274.75
2023-03-01T11:52:28.843Z,98282.56
2023-03-01T11:55:11.544Z,98281.66
2023-03-01T11:57:59.501Z,98285.00
2023-03-01T12:00:50.605Z,98284.13
2023-03-01T12:03:43.349Z,98286.78
2023-03-01T12:06:25.297Z,98276.44
2023-03-01T12:09:05.183Z,98256.59
2023-03-01T12:11:46.997Z,98252.28
2023-03-01T12:14:29.947Z,98226.31
2023-03-01T12:17:16.098Z,98229.84
2023-03-01T12:20:04.539Z,98205.59
2023-03-01T12:22:34.488Z,98215.19
2023-03-01T12:25:24.062Z,98150.97
2023-03-01T12:28:26.421Z,98213.44
2023-03-01T12:31:14.072Z,98213.41
2023-03-01T12:33:53.812Z,98202.13
2023-03-01T12:36:44.033Z,98193.47
2023-03-01T12:39:26.797Z,98195.19
2023-03-01T12:42:07.716Z,98174.38
2023-03-01T12:44:47.855Z,98195.19
2023-03-01T12:47:30.059Z,98183.06
2023-03-01T12:50:02.402Z,98178.72
2023-03-01T12:52:38.449Z,98167.47
2023-03-01T12:55:28.366Z,98168.31
2023-03-01T12:58:10.823Z,98159.66
2023-03-01T13:00:46.038Z,98032.31
2023-03-01T13:03:27.975Z,98141.47
2023-03-01T13:06:10.485Z,98142.31
2023-03-01T13:08:46.176Z,98131.94
2023-03-01T13:11:20.556Z,98111.13
2023-03-01T13:13:52.711Z,98136.25
2023-03-01T13:16:43.962Z,98116.28
2023-03-01T13:19:17.456Z,98101.53
2023-03-01T13:21:46.824Z,98105.00
2023-03-01T13:24:28.848Z,98102.34
2023-03-01T13:27:14.139Z,98096.28
2023-03-01T13:29:51.915Z,98104.94
2023-03-01T13:32:34.398Z,98103.22
2023-03-01T13:35:43.661Z,98095.44
2023-03-01T13:38:42.260Z,98098.03
2023-03-01T13:41:10.720Z,98106.72
2023-03-01T13:43:40.802Z,98084.16
2023-03-01T13:46:21.020Z,98098.03
2023-03-01T13:48:54.008Z,98104.94
2023-03-01T13:51:26.717Z,98103.22
2023-03-01T13:53:57.789Z,98111.03
2023-03-01T13:56:29.627Z,98103.19
2023-03-01T13:59:03.928Z,98077.25
2023-03-01T14:01:35.780Z,98074.66
2023-03-01T14:04:06.186Z,98091.94
2023-03-01T14:06:36.759Z,98047.84
2023-03-01T14:09:12.336Z,98086.75
2023-03-01T14:12:07.553Z,98072.91
2023-03-01T14:14:51.143Z,98080.72
2023-03-01T14:17:35.603Z,98077.28
2023-03-01T14:20:11.655Z,98074.69
2023-03-01T14:22:44.012Z,98073.81
2023-03-01T14:25:34.330Z,97983.75
2023-03-01T14:28:06.640Z,98072.03
2023-03-01T14:30:38.779Z,98028.72
2023-03-01T14:33:20.709Z,98066.81
2023-03-01T14:35:59.707Z,98050.38
2023-03-01T14:38:35.846Z,98047.75
2023-03-01T14:41:07.592Z,98066.84
2023-03-01T14:43:37.512Z,98053.00
2023-03-01T14:46:06.168Z,98068.59
2023-03-01T14:48:35.840Z,98063.41
2023-03-01T14:51:07.483Z,98071.19
2023-03-01T14:53:45.858Z,98062.56
2023-03-01T14:56:19.973Z,98014.09
2023-03-01T14:58:49.567Z,98034.00
2023-03-01T15:01:20.262Z,98057.41
2023-03-01T15:03:51.642Z,98054.78
2023-03-01T15:06:21.700Z,98065.16
2023-03-01T15:08:52.545Z,98053.91
2023-03-01T15:11:25.929Z,98058.25
2023-03-01T15:13:55.171Z,97995.94
2023-03-01T15:16:26.824Z,98057.38
2023-03-01T15:18:58.980Z,98030.56
2023-03-01T15:21:30.135Z,97957.00
2023-03-01T15:24:02.410Z,98046.16
2023-03-01T15:26:32.823Z,98051.34
2023-03-01T15:29:02.623Z,98047.03
2023-03-01T15:31:36.235Z,98052.22
2023-03-01T15:34:24.525Z,98043.56
2023-03-01T15:36:54.350Z,98045.28
2023-03-01T15:39:44.534Z,98040.97
2023-03-01T15:42:14.768Z,98013.28
2023-03-01T15:44:46.197Z,98056.56
2023-03-01T15:47:32.133Z,97861.84
2023-03-01T15:50:03.480Z,97915.47
2023-03-01T15:52:37.872Z,98040.97
2023-03-01T15:55:09.422Z,98016.72
2023-03-01T15:57:37.625Z,98037.50
2023-03-01T16:00:12.512Z,97995.97
2023-03-01T16:02:40.791Z,98046.16
2023-03-01T16:05:21.305Z,97915.47
2023-03-01T16:07:49.663Z,98041.84
2023-03-01T16:10:18.488Z,98044.44
2023-03-01T16:12:48.457Z,97955.25
2023-03-01T16:15:19.323Z,98052.25
2023-03-01T16:17:47.751Z,98047.91
2023-03-01T16:20:27.298Z,98047.06
2023-03-01T16:22:56.796Z,98026.25
2023-03-01T16:25:24.966Z,98040.97
2023-03-01T16:27:53.412Z,98047.03
2023-03-01T16:30:23.972Z,98044.44
2023-03-01T16:32:52.699Z,98021.06
2023-03-01T16:35:24.485Z,98087.72
2023-03-01T16:37:53.731Z,98043.56
2023-03-01T16:40:24.104Z,98047.88
2023-03-01T16:42:52.953Z,97980.34
2023-03-01T16:45:25.350Z,98040.09
2023-03-01T16:47:55.786Z,98032.31
2023-03-01T16:50:25.844Z,98040.09
2023-03-01T16:52:54.106Z,98037.50
2023-03-01T16:55:22.433Z,98047.88
2023-03-01T16:57:51.011Z,98052.19
2023-03-01T17:00:19.564Z,98051.34
2023-03-01T17:02:47.829Z,98052.19
2023-03-01T17:05:16.025Z,98047.00
2023-03-01T17:07:45.681Z,98032.25
2023-03-01T17:10:13.890Z,98060.81
2023-03-01T17:12:42.020Z,98057.41
2023-03-01T17:15:13.074Z,98054.78
2023-03-01T17:17:41.320Z,98060.84
2023-03-01T17:20:10.983Z,98005.41
2023-03-01T17:22:39.285Z,98034.00
2023-03-01T17:25:11.894Z,98066.88
2023-03-01T17:27:40.926Z,98070.38
2023-03-01T17:30:11.703Z,98068.63
2023-03-01T17:32:40.303Z,98054.78
2023-03-01T17:35:12.030Z,98027.91
2023-03-01T17:37:46.607Z,98068.66
2023-03-01T17:40:16.468Z,98076.44
2023-03-01T17:42:44.757Z,98078.16
2023-03-01T17:45:13.638Z,98031.38
2023-03-01T17:47:41.974Z,98068.63
2023-03-01T17:50:12.438Z,98049.56
2023-03-01T17:52:41.495Z,98073.81
2023-03-01T17:55:10.933Z,98070.34
2023-03-01T17:57:42.001Z,98045.19
2023-03-01T18:00:13.256Z,98068.59
2023-03-01T18:02:41.509Z,98068.63
2023-03-01T18:05:10.613Z,97942.16
2023-03-01T18:07:39.180Z,98066.94
2023-03-01T18:10:08.066Z,98063.41
2023-03-01T18:12:36.222Z,98059.09
2023-03-01T18:15:06.276Z,98023.53
2023-03-01T18:17:34.500Z,98065.13
2023-03-01T18:20:02.690Z,98073.78
2023-03-01T18:22:31.051Z,98068.59
2023-03-01T18:24:59.270Z,98090.22
2023-03-01T18:27:27.469Z,98039.94
2023-03-01T18:29:56.534Z,98079.78
2023-03-01T18:32:26.775Z,98029.44
2023-03-01T18:34:55.041Z,98077.19
2023-03-01T18:37:23.200Z,98055.53
2023-03-01T18:39:52.762Z,98078.06
2023-03-01T18:42:22.146Z,98010.47
2023-03-01T18:44:50.669Z,98061.59
2023-03-01T18:47:18.788Z,98078.06
2023-03-01T18:49:48.289Z,98037.34
2023-03-01T18:52:16.845Z,98072.88
2023-03-01T18:54:45.012Z,98072.91
2023-03-01T18:57:13.144Z,98079.81
2023-03-01T18:59:41.317Z,97994.91
2023-03-01T19:02:09.500Z,98074.63
2023-03-01T19:04:37.708Z,98070.28
2023-03-01T19:07:08.164Z,98070.28
2023-03-01T19:09:36.338Z,98072.03
2023-03-01T19:12:06.271Z,98075.53
2023-03-01T19:14:34.660Z,98079.00
2023-03-01T19:17:02.844Z,98082.41
2023-03-01T19:19:30.950Z,98067.72
2023-03-01T19:22:05.680Z,98086.75
2023-03-01T19:24:36.094Z,98071.09
2023-03-01T19:27:04.317Z,98077.09
2023-03-01T19:29:32.752Z,98068.44
2023-03-01T19:32:00.908Z,98069.28
2023-03-01T19:34:29.045Z,98069.31
2023-03-01T19:36:57.924Z,98081.44
2023-03-01T19:39:27.547Z,98071.84
2023-03-01T19:41:57.590Z,98081.31
2023-03-01T19:44:25.746Z,98062.19
2023-03-01T19:46:54.302Z,98092.50
2023-03-01T19:49:22.660Z,98092.50
2023-03-01T19:51:51.001Z,98073.31
2023-03-01T19:54:20.311Z,98095.84
2023-03-01T19:56:48.642Z,98100.19
2023-03-01T19:59:19.437Z,98103.66
2023-03-01T20:01:47.596Z,98088.81
2023-03-01T20:04:15.771Z,98038.53
2023-03-01T20:06:46.755Z,98117.41
2023-03-01T20:09:21.747Z,98089.69
2023-03-01T20:11:50.924Z,98097.47
2023-03-01T20:14:23.750Z,98111.38
2023-03-01T20:16:52.410Z,98115.69
2023-03-01T20:19:20.967Z,98114.88
2023-03-01T20:21:49.094Z,98085.47
2023-03-01T20:24:17.377Z,98114.09
2023-03-01T20:26:45.461Z,98119.25
2023-03-01T20:29:13.842Z,98115.78
2023-03-01T20:31:43.521Z,98118.41
2023-03-01T20:34:14.375Z,98094.97
2023-03-01T20:36:44.387Z,98121.78
2023-03-01T20:39:12.974Z,98116.66
2023-03-01T20:41:41.147Z,98124.41
2023-03-01T20:44:09.856Z,98117.50
2023-03-01T20:46:38.690Z,98116.59
2023-03-01T20:49:08.613Z,98123.59
2023-03-01T20:51:38.010Z,98132.19
2023-03-01T20:54:06.814Z,98133.06
2023-03-01T20:56:35.671Z,98110.56
2023-03-01T20:59:05.272Z,98138.28
2023-03-01T21:01:33.948Z,98121.78
2023-03-01T21:04:02.362Z,98082.88
2023-03-01T21:06:32.495Z,98134.03
2023-03-01T21:09:00.867Z,98116.66
2023-03-01T21:11:29.163Z,98125.34
2023-03-01T21:13:57.832Z,98131.38
2023-03-01T21:16:26.396Z,98125.31
2023-03-01T21:18:55.095Z,98101.91
2023-03-01T21:21:25.075Z,98120.16
2023-03-01T21:23:58.205Z,98096.78
2023-03-01T21:26:28.618Z,98116.72
2023-03-01T21:28:58.803Z,98063.00
2023-03-01T21:31:29.525Z,98084.75
2023-03-01T21:34:00.091Z,97996.38
2023-03-01T21:36:30.784Z,98095.19
2023-03-01T21:39:02.662Z,98091.78
2023-03-01T21:41:33.408Z,98091.72
2023-03-01T21:44:03.297Z,98073.53
2023-03-01T21:46:34.513Z,98092.59
2023-03-01T21:49:04.837Z,98090.03
2023-03-01T21:51:33.822Z,97981.72
2023-03-01T21:54:03.758Z,97953.97
2023-03-01T21:56:35.168Z,98074.50
2023-03-01T21:59:05.132Z,98052.88
2023-03-01T22:01:33.486Z,97963.53
2023-03-01T22:04:03.509Z,98029.41
2023-03-01T22:06:34.486Z,98028.56
2023-03-01T22:09:08.783Z,98064.09
2023-03-01T22:11:39.594Z,98086.44
2023-03-01T22:14:08.633Z,98077.06
2023-03-01T22:16:38.652Z,98040.72
2023-03-01T22:19:08.039Z,98054.66
2023-03-01T22:21:37.001Z,98046.88
2023-03-01T22:24:07.980Z,98032.94
2023-03-01T22:26:38.257Z,98040.72
2023-03-01T22:29:08.771Z,98050.22
2023-03-01T22:31:37.257Z,98050.22
2023-03-01T22:34:06.217Z,97849.25
2023-03-01T22:36:35.078Z,98024.22
2023-03-01T22:39:05.052Z,98023.34
2023-03-01T22:41:37.172Z,98043.28
2023-03-01T22:44:06.095Z,98040.69
2023-03-01T22:46:35.004Z,98033.78
2023-03-01T22:49:05.212Z,98045.00
2023-03-01T22:51:35.288Z,98033.75
2023-03-01T22:54:03.840Z,98025.19
2023-03-01T22:56:34.152Z,98019.09
2023-03-01T22:59:08.302Z,98025.19
2023-03-01T23:01:37.255Z,98022.59
2023-03-01T23:04:05.623Z,97859.81
2023-03-01T23:06:34.275Z,98011.41
2023-03-01T23:09:04.403Z,97986.25
2023-03-01T23:11:32.999Z,98006.22
2023-03-01T23:14:01.176Z,98003.63
2023-03-01T23:16:31.292Z,98010.56
2023-03-01T23:18:59.848Z,98009.66
2023-03-01T23:21:28.887Z,97986.28
2023-03-01T23:23:57.537Z,98007.94
2023-03-01T23:26:27.427Z,97846.94
2023-03-01T23:28:56.579Z,98027.00
2023-03-01T23:31:25.698Z,97970.72
2023-03-01T23:33:55.365Z,98011.41
2023-03-01T23:36:25.444Z,97975.91
2023-03-01T23:38:56.812Z,98014.88
2023-03-01T23:41:28.026Z,98018.34
2023-03-01T23:43:57.870Z,98017.50
2023-03-01T23:46:27.948Z,98020.09
2023-03-01T23:48:58.208Z,98020.09
2023-03-01T23:51:27.047Z,97989.81
2023-03-01T23:53:59.364Z,97876.41
2023-03-01T23:56:29.435Z,98008.84
2023-03-01T23:58:59.773Z,98010.59
